createdAt,value
2022-12-11T00:00:25.872Z,6.90
2022-12-11T00:03:15.793Z,5.30
2022-12-11T00:05:44.236Z,9.00
2022-12-11T00:08:12.327Z,7.70
2022-12-11T00:10:39.180Z,14.20
2022-12-11T00:13:05.995Z,6.90
2022-12-11T00:15:32.688Z,5.70
2022-12-11T00:17:59.558Z,6.10
2022-12-11T00:20:26.614Z,3.40
2022-12-11T00:22:53.492Z,6.00
2022-12-11T00:25:20.177Z,5.00
2022-12-11T00:27:47.080Z,5.60
2022-12-11T00:30:14.212Z,6.10
2022-12-11T00:32:41.075Z,5.90
2022-12-11T00:35:08.625Z,6.10
2022-12-11T00:37:36.063Z,6.70
2022-12-11T00:40:03.418Z,7.40
2022-12-11T00:42:30.079Z,7.50
2022-12-11T00:44:57.291Z,9.80
2022-12-11T00:47:23.968Z,8.90
2022-12-11T00:49:50.705Z,10.20
2022-12-11T00:52:17.504Z,7.80
2022-12-11T00:54:44.650Z,9.40
2022-12-11T00:57:11.380Z,11.10
2022-12-11T00:59:38.452Z,8.10
2022-12-11T01:02:05.048Z,9.90
2022-12-11T01:04:31.719Z,5.30
2022-12-11T01:06:58.495Z,9.00
2022-12-11T01:09:43.906Z,8.00
2022-12-11T01:12:10.679Z,6.30
2022-12-11T01:14:37.294Z,6.00
2022-12-11T01:17:04.097Z,5.70
2022-12-11T01:19:30.871Z,5.70
2022-12-11T01:21:57.610Z,3.60
2022-12-11T01:24:24.246Z,5.60
2022-12-11T01:26:50.909Z,6.10
2022-12-11T01:29:17.586Z,3.70
2022-12-11T01:31:44.235Z,4.40
2022-12-11T01:34:11.895Z,4.00
2022-12-11T01:36:38.755Z,4.90
2022-12-11T01:39:05.556Z,7.10
2022-12-11T01:41:32.192Z,6.40
2022-12-11T01:44:01.024Z,6.20
2022-12-11T01:46:28.638Z,7.90
2022-12-11T01:48:56.161Z,7.80
2022-12-11T01:51:24.225Z,7.70
2022-12-11T01:54:05.619Z,6.70
2022-12-11T01:56:35.721Z,16.40
2022-12-11T01:59:06.866Z,9.90
2022-12-11T02:01:45.188Z,8.20
2022-12-11T02:04:15.691Z,4.30
2022-12-11T02:06:48.455Z,5.50
2022-12-11T02:11:51.329Z,13.80
2022-12-11T02:14:23.679Z,12.20
2022-12-11T02:17:06.760Z,7.50
2022-12-11T02:19:54.243Z,14.00
2022-12-11T02:22:32.747Z,16.80
2022-12-11T02:25:30.754Z,18.00
2022-12-11T02:28:24.550Z,9.00
2022-12-11T02:30:56.601Z,6.90
2022-12-11T02:33:42.009Z,6.30
2022-12-11T02:36:09.549Z,3.90
2022-12-11T02:38:41.280Z,6.00
2022-12-11T02:41:11.307Z,5.90
2022-12-11T02:43:39.772Z,5.50
2022-12-11T02:46:07.594Z,4.10
2022-12-11T02:48:36.440Z,6.20
2022-12-11T02:51:06.101Z,5.20
2022-12-11T02:53:37.350Z,4.30
2022-12-11T02:56:18.632Z,4.60
2022-12-11T02:58:52.729Z,5.80
2022-12-11T03:01:22.279Z,5.00
2022-12-11T03:03:48.935Z,6.40
2022-12-11T03:06:19.963Z,7.40
2022-12-11T03:08:46.618Z,6.30
2022-12-11T03:11:13.428Z,5.30
2022-12-11T03:13:42.040Z,4.20
2022-12-11T03:16:30.494Z,4.20
2022-12-11T03:19:15.278Z,5.90
2022-12-11T03:21:54.126Z,5.60
2022-12-11T03:24:20.658Z,5.80
2022-12-11T03:26:56.637Z,4.00
2022-12-11T03:29:31.073Z,6.10
2022-12-11T03:32:08.426Z,6.00
2022-12-11T03:35:05.197Z,4.80
2022-12-11T03:37:36.169Z,5.10
2022-12-11T03:40:09.579Z,4.50
2022-12-11T03:42:39.523Z,5.80
2022-12-11T03:45:08.289Z,4.00
2022-12-11T03:47:37.498Z,4.50
2022-12-11T03:50:07.128Z,4.60
2022-12-11T03:52:36.267Z,6.30
2022-12-11T03:55:06.072Z,4.80
2022-12-11T03:57:36.489Z,5.60
2022-12-11T04:00:09.446Z,4.50
2022-12-11T04:02:39.612Z,6.60
2022-12-11T04:05:07.008Z,5.50
2022-12-11T04:07:33.847Z,8.20
2022-12-11T04:10:01.063Z,8.00
2022-12-11T04:12:27.800Z,7.80
2022-12-11T04:15:03.616Z,6.00
2022-12-11T04:18:08.173Z,7.80
2022-12-11T04:20:53.655Z,6.60
2022-12-11T04:23:39.225Z,6.90
2022-12-11T04:26:12.310Z,7.30
2022-12-11T04:28:41.673Z,5.20
2022-12-11T04:31:19.810Z,5.20
2022-12-11T04:33:47.381Z,4.10
2022-12-11T04:36:14.460Z,4.90
2022-12-11T04:38:41.121Z,5.70
2022-12-11T04:41:10.714Z,7.20
2022-12-11T04:43:37.859Z,7.10
2022-12-11T04:46:08.906Z,6.50
2022-12-11T04:48:36.890Z,4.50
2022-12-11T04:51:04.218Z,4.00
2022-12-11T04:53:31.248Z,4.00
2022-12-11T04:55:57.895Z,5.00
2022-12-11T04:58:27.195Z,4.80
2022-12-11T05:00:53.849Z,8.70
2022-12-11T05:03:20.673Z,7.30
2022-12-11T05:05:52.653Z,4.30
2022-12-11T05:08:20.593Z,5.30
2022-12-11T05:11:01.176Z,5.10
2022-12-11T05:13:29.650Z,6.10
2022-12-11T05:15:57.619Z,4.90
2022-12-11T05:18:24.911Z,7.60
2022-12-11T05:21:00.442Z,8.00
2022-12-11T05:23:28.105Z,9.30
2022-12-11T05:25:56.453Z,9.30
2022-12-11T05:28:24.677Z,9.90
2022-12-11T05:31:05.842Z,9.90
2022-12-11T05:33:33.617Z,10.90
2022-12-11T05:36:00.945Z,8.70
2022-12-11T05:38:27.731Z,5.80
2022-12-11T05:41:02.961Z,13.10
2022-12-11T05:43:31.885Z,13.90
2022-12-11T05:46:09.080Z,9.10
2022-12-11T05:48:37.607Z,8.60
2022-12-11T05:51:06.008Z,5.00
2022-12-11T05:53:33.034Z,6.80
2022-12-11T05:56:05.804Z,15.50
2022-12-11T05:58:33.554Z,7.40
2022-12-11T06:01:01.022Z,14.60
2022-12-11T06:03:28.917Z,7.00
2022-12-11T06:05:55.539Z,12.70
2022-12-11T06:08:22.211Z,6.70
2022-12-11T06:10:50.659Z,9.10
2022-12-11T06:13:17.882Z,10.80
2022-12-11T06:15:44.592Z,9.60
2022-12-11T06:18:11.418Z,8.70
2022-12-11T06:20:38.294Z,7.00
2022-12-11T06:23:05.212Z,5.10
2022-12-11T06:25:31.862Z,9.70
2022-12-11T06:27:58.582Z,11.60
2022-12-11T06:30:38.758Z,11.20
2022-12-11T06:33:06.580Z,7.80
2022-12-11T06:35:38.626Z,10.00
2022-12-11T06:38:10.033Z,8.10
2022-12-11T06:40:36.770Z,9.10
2022-12-11T06:43:03.569Z,8.30
2022-12-11T06:45:30.382Z,7.30
2022-12-11T06:47:57.853Z,9.70
2022-12-11T06:50:24.562Z,12.00
2022-12-11T06:52:51.575Z,9.20
2022-12-11T06:55:18.346Z,10.20
2022-12-11T06:57:45.144Z,8.00
2022-12-11T07:00:12.442Z,10.30
2022-12-11T07:02:39.137Z,7.40
2022-12-11T07:05:06.311Z,9.30
2022-12-11T07:07:33.799Z,7.30
2022-12-11T07:10:07.583Z,9.80
2022-12-11T07:12:36.764Z,9.80
2022-12-11T07:15:05.798Z,10.90
2022-12-11T07:17:32.582Z,10.60
2022-12-11T07:19:59.363Z,10.20
2022-12-11T07:22:26.115Z,8.60
2022-12-11T07:24:52.693Z,8.20
2022-12-11T07:27:19.327Z,8.50
2022-12-11T07:29:46.086Z,9.40
2022-12-11T07:32:12.912Z,5.70
2022-12-11T07:34:39.683Z,4.60
2022-12-11T07:37:06.507Z,4.90
2022-12-11T07:39:33.405Z,13.80
2022-12-11T07:42:00.185Z,4.20
2022-12-11T07:44:26.822Z,2.20
2022-12-11T07:46:53.475Z,2.60
2022-12-11T07:49:20.478Z,2.80
2022-12-11T07:51:47.107Z,2.60
2022-12-11T07:54:16.245Z,3.60
2022-12-11T07:56:47.413Z,2.70
2022-12-11T07:59:16.701Z,1.70
2022-12-11T08:01:43.622Z,1.80
2022-12-11T08:04:11.663Z,1.90
2022-12-11T08:06:39.870Z,1.40
2022-12-11T08:09:09.443Z,1.40
2022-12-11T08:11:36.857Z,1.30
2022-12-11T08:14:06.026Z,1.00
2022-12-11T08:16:32.914Z,0.70
2022-12-11T08:18:59.834Z,1.10
2022-12-11T08:21:27.890Z,0.90
2022-12-11T08:23:55.410Z,1.10
2022-12-11T08:26:31.717Z,1.90
2022-12-11T08:28:59.870Z,1.70
2022-12-11T08:31:27.042Z,2.00
2022-12-11T08:33:55.952Z,1.80
2022-12-11T08:36:24.283Z,2.70
2022-12-11T08:38:54.656Z,4.60
2022-12-11T08:41:30.743Z,3.40
2022-12-11T08:43:59.691Z,2.10
2022-12-11T08:46:29.094Z,3.40
2022-12-11T08:48:57.360Z,2.10
2022-12-11T08:51:26.969Z,2.40
2022-12-11T08:53:55.718Z,1.60
2022-12-11T08:56:23.150Z,1.70
2022-12-11T08:58:50.797Z,1.20
2022-12-11T09:01:23.628Z,1.30
2022-12-11T09:03:53.394Z,1.70
2022-12-11T09:06:22.916Z,1.80
2022-12-11T09:08:52.946Z,1.90
2022-12-11T09:11:23.558Z,1.50
2022-12-11T09:13:51.152Z,1.00
2022-12-11T09:16:20.824Z,1.60
2022-12-11T09:18:49.819Z,1.90
2022-12-11T09:21:18.707Z,1.20
2022-12-11T09:23:46.116Z,1.20
2022-12-11T09:26:15.895Z,1.40
2022-12-11T09:28:46.545Z,0.90
2022-12-11T09:31:36.053Z,1.10
2022-12-11T09:34:08.607Z,1.20
2022-12-11T09:36:37.424Z,2.30
2022-12-11T09:39:07.156Z,6.70
2022-12-11T09:41:42.976Z,4.10
2022-12-11T09:44:31.631Z,4.30
2022-12-11T09:46:59.182Z,1.20
2022-12-11T09:49:38.695Z,1.00
2022-12-11T09:52:35.787Z,1.50
2022-12-11T09:55:23.962Z,1.20
2022-12-11T09:58:17.960Z,1.20
2022-12-11T10:00:54.664Z,1.00
2022-12-11T10:03:43.402Z,1.90
2022-12-11T10:06:30.101Z,2.20
2022-12-11T10:09:10.407Z,2.30
2022-12-11T10:11:42.987Z,6.30
2022-12-11T10:17:03.734Z,3.30
2022-12-11T10:19:32.137Z,1.70
2022-12-11T10:22:00.740Z,2.00
2022-12-11T10:25:09.933Z,2.30
2022-12-11T10:27:31.872Z,1.80
2022-12-11T10:30:13.244Z,2.00
2022-12-11T10:32:53.586Z,2.20
2022-12-11T10:35:36.132Z,2.90
2022-12-11T10:38:23.365Z,2.40
2022-12-11T10:40:54.139Z,2.40
2022-12-11T10:43:42.120Z,2.40
2022-12-11T10:46:21.833Z,4.10
2022-12-11T10:48:59.710Z,6.20
2022-12-11T10:51:29.532Z,5.20
2022-12-11T10:54:06.865Z,5.70
2022-12-11T10:56:37.244Z,4.90
2022-12-11T10:59:04.532Z,4.10
2022-12-11T11:01:32.235Z,4.50
2022-12-11T11:04:20.167Z,4.30
2022-12-11T11:06:48.322Z,5.10
2022-12-11T11:09:30.083Z,2.60
2022-12-11T11:11:56.852Z,2.10
2022-12-11T11:14:23.578Z,2.10
2022-12-11T11:16:55.624Z,3.20
2022-12-11T11:19:34.495Z,1.90
2022-12-11T11:22:05.714Z,1.80
2022-12-11T11:24:32.360Z,1.90
2022-12-11T11:27:14.974Z,1.70
2022-12-11T11:29:42.516Z,1.90
2022-12-11T11:32:32.918Z,1.70
2022-12-11T11:35:16.939Z,1.60
2022-12-11T11:37:57.669Z,1.70
2022-12-11T11:41:14.715Z,1.80
2022-12-11T11:43:45.938Z,2.20
2022-12-11T11:46:37.205Z,1.70
2022-12-11T11:49:16.335Z,1.70
2022-12-11T11:51:48.524Z,2.60
2022-12-11T11:54:42.321Z,2.60
2022-12-11T11:57:32.012Z,2.10
2022-12-11T12:00:14.722Z,1.90
2022-12-11T12:02:41.785Z,1.70
2022-12-11T12:05:13.350Z,1.70
2022-12-11T12:07:47.724Z,2.20
2022-12-11T12:10:25.936Z,2.20
2022-12-11T12:13:44.770Z,2.50
2022-12-11T12:16:17.686Z,4.30
2022-12-11T12:19:03.677Z,4.00
2022-12-11T12:21:44.201Z,1.80
2022-12-11T12:24:25.959Z,1.50
2022-12-11T12:26:59.821Z,1.50
2022-12-11T12:29:51.615Z,1.70
2022-12-11T12:32:30.541Z,1.80
2022-12-11T12:35:02.467Z,1.90
2022-12-11T12:37:50.403Z,1.20
2022-12-11T12:41:01.886Z,2.40
2022-12-11T12:43:52.146Z,1.60
2022-12-11T12:46:37.194Z,2.10
2022-12-11T12:49:07.787Z,4.00
2022-12-11T12:51:34.762Z,6.00
2022-12-11T12:54:06.668Z,4.90
2022-12-11T12:56:40.207Z,14.70
2022-12-11T12:59:20.003Z,16.10
2022-12-11T13:01:51.605Z,7.10
2022-12-11T13:07:32.053Z,6.60
2022-12-11T13:10:01.758Z,11.10
2022-12-11T13:12:41.867Z,5.10
2022-12-11T13:15:28.749Z,7.50
2022-12-11T13:17:56.511Z,6.40
2022-12-11T13:20:27.056Z,8.60
2022-12-11T13:22:54.266Z,3.10
2022-12-11T13:25:30.799Z,1.70
2022-12-11T13:28:19.334Z,1.80
2022-12-11T13:30:57.373Z,1.40
2022-12-11T13:33:26.551Z,2.60
2022-12-11T13:36:21.359Z,2.80
2022-12-11T13:38:54.988Z,2.20
2022-12-11T13:41:22.694Z,5.20
2022-12-11T13:43:56.616Z,2.60
2022-12-11T13:46:31.348Z,1.90
2022-12-11T13:49:04.284Z,2.80
2022-12-11T13:51:34.483Z,5.30
2022-12-11T13:54:21.472Z,5.70
2022-12-11T13:57:13.543Z,3.60
2022-12-11T13:59:49.263Z,7.10
2022-12-11T14:02:29.748Z,8.70
2022-12-11T14:05:00.403Z,5.90
2022-12-11T14:07:34.085Z,7.90
2022-12-11T14:10:18.737Z,5.40
2022-12-11T14:12:54.037Z,7.70
2022-12-11T14:15:21.261Z,5.40
2022-12-11T14:17:51.829Z,3.30
2022-12-11T14:20:23.407Z,5.30
2022-12-11T14:22:50.389Z,4.00
2022-12-11T14:25:27.154Z,3.10
2022-12-11T14:27:56.117Z,2.60
2022-12-11T14:30:25.478Z,3.10
2022-12-11T14:33:02.540Z,3.20
2022-12-11T14:35:37.070Z,3.20
2022-12-11T14:38:15.949Z,3.00
2022-12-11T14:40:46.494Z,3.00
2022-12-11T14:43:26.249Z,2.80
2022-12-11T14:46:01.765Z,2.80
2022-12-11T14:48:36.478Z,3.10
2022-12-11T14:51:06.963Z,2.80
2022-12-11T14:53:53.889Z,1.70
2022-12-11T14:56:25.036Z,2.10
2022-12-11T14:59:06.232Z,1.40
2022-12-11T15:01:35.857Z,3.00
2022-12-11T15:04:07.124Z,3.10
2022-12-11T15:06:45.655Z,2.20
2022-12-11T15:09:35.075Z,3.30
2022-12-11T15:12:15.262Z,1.90
2022-12-11T15:15:00.683Z,2.20
2022-12-11T15:17:30.489Z,2.50
2022-12-11T15:20:08.419Z,2.50
2022-12-11T15:22:36.811Z,3.20
2022-12-11T15:25:05.210Z,6.90
2022-12-11T15:27:37.322Z,3.90
2022-12-11T15:30:21.318Z,5.60
2022-12-11T15:32:48.193Z,4.70
2022-12-11T15:35:26.900Z,13.20
2022-12-11T15:37:55.843Z,12.40
2022-12-11T15:40:23.562Z,11.00
2022-12-11T15:42:51.355Z,20.90
2022-12-11T15:45:21.133Z,21.10
2022-12-11T15:47:49.087Z,10.60
2022-12-11T15:50:22.714Z,4.40
2022-12-11T15:52:51.023Z,3.80
2022-12-11T15:55:19.377Z,4.60
2022-12-11T15:57:58.911Z,5.40
2022-12-11T16:00:27.556Z,2.30
2022-12-11T16:02:56.436Z,3.40
2022-12-11T16:05:26.179Z,3.60
2022-12-11T16:07:58.820Z,4.30
2022-12-11T16:12:56.098Z,3.90
2022-12-11T16:15:24.084Z,3.30
2022-12-11T16:17:59.254Z,3.50
2022-12-11T16:20:25.971Z,4.20
2022-12-11T16:22:52.675Z,3.10
2022-12-11T16:25:19.326Z,1.90
2022-12-11T16:27:46.457Z,3.00
2022-12-11T16:30:13.729Z,2.50
2022-12-11T16:32:40.444Z,3.20
2022-12-11T16:35:07.484Z,2.20
2022-12-11T16:37:34.477Z,2.90
2022-12-11T16:40:01.311Z,2.20
2022-12-11T16:42:28.138Z,1.60
2022-12-11T16:45:03.900Z,2.40
2022-12-11T16:47:30.749Z,2.90
2022-12-11T16:49:58.629Z,2.80
2022-12-11T16:52:25.359Z,2.70
2022-12-11T16:54:52.048Z,2.30
2022-12-11T16:57:18.788Z,3.80
2022-12-11T16:59:46.934Z,4.20
2022-12-11T17:02:14.118Z,3.90
2022-12-11T17:04:41.646Z,3.60
2022-12-11T17:07:08.418Z,1.70
2022-12-11T17:09:35.442Z,2.60
2022-12-11T17:12:02.462Z,4.50
2022-12-11T17:14:29.221Z,2.50
2022-12-11T17:16:56.553Z,3.10
2022-12-11T17:19:23.652Z,4.50
2022-12-11T17:21:51.926Z,6.70
2022-12-11T17:24:19.746Z,7.00
2022-12-11T17:26:46.448Z,5.70
2022-12-11T17:29:13.574Z,5.90
2022-12-11T17:31:40.416Z,5.30
2022-12-11T17:34:07.275Z,11.00
2022-12-11T17:36:34.254Z,5.40
2022-12-11T17:39:00.991Z,9.10
2022-12-11T17:41:27.781Z,4.80
2022-12-11T17:43:55.034Z,5.30
2022-12-11T17:46:22.357Z,2.70
2022-12-11T17:48:49.804Z,6.70
2022-12-11T17:51:23.228Z,3.60
2022-12-11T17:53:54.679Z,5.70
2022-12-11T17:56:22.121Z,2.60
2022-12-11T17:58:49.213Z,4.10
2022-12-11T18:01:16.543Z,10.60
2022-12-11T18:03:43.491Z,7.10
2022-12-11T18:06:13.695Z,6.50
2022-12-11T18:08:41.461Z,4.70
2022-12-11T18:11:12.145Z,4.20
2022-12-11T18:13:40.094Z,4.30
2022-12-11T18:16:11.846Z,4.10
2022-12-11T18:18:39.746Z,3.90
2022-12-11T18:21:06.792Z,2.70
2022-12-11T18:23:33.992Z,2.60
2022-12-11T18:26:00.907Z,4.20
2022-12-11T18:28:29.757Z,4.00
2022-12-11T18:30:59.050Z,3.80
2022-12-11T18:33:26.105Z,4.50
2022-12-11T18:35:52.753Z,4.80
2022-12-11T18:38:19.583Z,4.00
2022-12-11T18:40:46.227Z,3.30
2022-12-11T18:43:12.944Z,5.00
2022-12-11T18:45:41.195Z,5.00
2022-12-11T18:48:09.003Z,5.10
2022-12-11T18:50:35.936Z,4.30
2022-12-11T18:53:03.471Z,3.00
2022-12-11T18:55:30.335Z,2.90
2022-12-11T18:57:57.964Z,2.40
2022-12-11T19:00:25.994Z,2.90
2022-12-11T19:02:52.823Z,3.00
2022-12-11T19:05:19.664Z,1.50
2022-12-11T19:07:47.299Z,4.60
2022-12-11T19:13:32.122Z,6.10
2022-12-11T19:16:01.798Z,4.10
2022-12-11T19:18:30.022Z,5.00
2022-12-11T19:21:06.740Z,4.80
2022-12-11T19:23:37.804Z,4.60
2022-12-11T19:26:11.194Z,4.80
2022-12-11T19:28:39.904Z,4.60
2022-12-11T19:31:10.408Z,5.10
2022-12-11T19:33:40.247Z,5.40
2022-12-11T19:36:11.781Z,4.80
2022-12-11T19:38:42.051Z,3.10
2022-12-11T19:41:13.864Z,3.30
2022-12-11T19:43:42.265Z,2.60
2022-12-11T19:46:11.605Z,4.80
2022-12-11T19:48:41.532Z,5.00
2022-12-11T19:51:13.160Z,5.10
2022-12-11T19:53:42.594Z,5.20
2022-12-11T19:56:12.031Z,5.30
2022-12-11T19:58:40.908Z,5.00
2022-12-11T20:01:10.025Z,3.60
2022-12-11T20:03:39.192Z,2.70
2022-12-11T20:06:08.471Z,3.20
2022-12-11T20:08:44.616Z,5.30
2022-12-11T20:11:18.363Z,5.80
2022-12-11T20:13:48.193Z,4.20
2022-12-11T20:16:19.972Z,3.90
2022-12-11T20:18:54.926Z,3.00
2022-12-11T20:21:23.788Z,4.50
2022-12-11T20:23:54.467Z,3.70
2022-12-11T20:26:25.390Z,4.70
2022-12-11T20:28:56.790Z,4.50
2022-12-11T20:31:26.215Z,2.90
2022-12-11T20:33:56.260Z,4.80
2022-12-11T20:36:25.679Z,2.10
2022-12-11T20:38:53.940Z,3.80
2022-12-11T20:41:24.422Z,5.20
2022-12-11T20:43:54.141Z,2.80
2022-12-11T20:46:25.468Z,5.10
2022-12-11T20:48:55.818Z,6.20
2022-12-11T20:51:26.399Z,7.30
2022-12-11T20:53:59.138Z,5.70
2022-12-11T20:56:29.717Z,6.00
2022-12-11T20:58:59.808Z,5.20
2022-12-11T21:01:30.893Z,5.90
2022-12-11T21:03:59.335Z,6.40
2022-12-11T21:06:33.736Z,4.70
2022-12-11T21:09:05.448Z,4.40
2022-12-11T21:11:33.839Z,5.80
2022-12-11T21:14:02.101Z,6.40
2022-12-11T21:16:30.729Z,6.30
2022-12-11T21:18:58.958Z,6.70
2022-12-11T21:21:27.194Z,6.60
2022-12-11T21:23:55.651Z,5.50
2022-12-11T21:26:24.196Z,4.40
2022-12-11T21:28:52.414Z,6.60
2022-12-11T21:31:21.390Z,7.00
2022-12-11T21:33:49.650Z,6.50
2022-12-11T21:36:18.129Z,6.70
2022-12-11T21:38:46.714Z,4.50
2022-12-11T21:41:21.211Z,3.70
2022-12-11T21:44:56.472Z,5.70
2022-12-11T21:46:39.890Z,6.10
2022-12-11T21:49:11.023Z,7.00
2022-12-11T21:51:46.843Z,6.70
2022-12-11T21:54:19.025Z,7.40
2022-12-11T21:56:47.646Z,6.60
2022-12-11T21:59:15.899Z,7.20
2022-12-11T22:01:46.217Z,6.40
2022-12-11T22:04:15.961Z,7.30
2022-12-11T22:06:47.089Z,7.60
2022-12-11T22:09:16.750Z,4.80
2022-12-11T22:11:47.245Z,6.30
2022-12-11T22:14:17.008Z,6.00
2022-12-11T22:16:45.525Z,5.60
2022-12-11T22:19:13.617Z,5.70
2022-12-11T22:21:41.988Z,6.00
2022-12-11T22:24:10.087Z,4.40
2022-12-11T22:26:39.234Z,3.10
2022-12-11T22:29:07.339Z,3.40
2022-12-11T22:31:35.543Z,4.00
2022-12-11T22:34:03.763Z,6.20
2022-12-11T22:36:31.795Z,6.40
2022-12-11T22:39:01.079Z,6.20
2022-12-11T22:41:31.947Z,6.30
2022-12-11T22:44:00.749Z,3.90
2022-12-11T22:46:30.145Z,5.70
2022-12-11T22:48:59.154Z,5.50
2022-12-11T22:51:27.444Z,5.90
2022-12-11T22:53:55.580Z,4.90
2022-12-11T22:56:24.046Z,3.50
2022-12-11T22:58:52.126Z,4.10
2022-12-11T23:01:23.270Z,3.50
2022-12-11T23:03:51.369Z,2.50
2022-12-11T23:06:22.280Z,2.70
2022-12-11T23:08:51.907Z,3.90
2022-12-11T23:11:29.236Z,4.90
2022-12-11T23:13:57.852Z,6.70
2022-12-11T23:16:26.643Z,6.50
2022-12-11T23:18:57.112Z,6.50
2022-12-11T23:21:26.787Z,6.60
2022-12-11T23:23:55.696Z,7.30
2022-12-11T23:26:27.379Z,6.80
2022-12-11T23:28:56.839Z,6.40
2022-12-11T23:31:26.396Z,3.90
2022-12-11T23:33:54.601Z,6.50
2022-12-11T23:36:23.134Z,6.20
2022-12-11T23:38:54.751Z,6.60
2022-12-11T23:41:23.991Z,4.50
2022-12-11T23:43:52.424Z,6.70
2022-12-11T23:46:24.533Z,6.90
2022-12-11T23:48:53.919Z,7.10
2022-12-11T23:51:24.121Z,6.20
2022-12-11T23:53:53.189Z,5.80
2022-12-11T23:56:28.313Z,6.30
2022-12-11T23:58:57.699Z,7.10
